Portada
METAR-TAF:

METAR-TAF

Aeropuertos :

Base aérea Cameri

Novara, Italia

latitud: 45-31N, longitud: 008-40E, altitud: 178 m

Observación

El informe se hizo hace 23 horas y 47 minutos, a las 17:55 UTC
Viento 3 kt del este-sureste
Temperatura 25°C
Humedad 41%
Presión 999 hPa
Visibilidad 10 km o más
sin nubes por debajo de 1500 m y sin presencia de cumulonimbus.

METAR: LIMN 051755Z 11003KT CAVOK 25/11 Q0999 RMK SKC VIS MIN 9999 BLU

Hora: 19:42 (17:42 UTC)

Pronóstico

El informe se hizo hace 42 minutos, a las 17:00 UTC
Pronóstico válido del 05 a las 18 UTC al 06 a las 03 UTC
Viento 5 kt del oeste-suroeste
Visibilidad 10 km o más
sin nubes por debajo de 1500 m y sin presencia de cumulonimbus.

TAF: LIMN 051700Z 0518/0603 24005KT CAVOK

Observaciones y pronósticos meteorológicos de más de 4000 aeropuertos (mensajes METAR y TAF).

Los puntos amarillos y rojos representan las estaciones disponibles.

Ponga el ratón en el punto deseado para ver el nombre de la estación.

Haga clic para ver las observaciones y los pronósticos meteorológicos.

Para cambiar el mapa : haga clic en los botones verdes con una cruz de color negro para hacer un zoom, en el botón verde con un guión para alejar o en las flechas verdes para mapas adyacentes.


METAR-TAF: